sensor_id;sensor_type;location;lat;lon;timestamp;P1;durP1;ratioP1;P2;durP2;ratioP2
21274;SDS011;36472;52.170;20.884;2022-11-15T00:00:59;37.92;;;23.23;;
21274;SDS011;36472;52.170;20.884;2022-11-15T00:03:50;39.80;;;22.08;;
21274;SDS011;36472;52.170;20.884;2022-11-15T00:06:39;40.25;;;24.45;;
21274;SDS011;36472;52.170;20.884;2022-11-15T00:09:26;42.65;;;24.08;;
21274;SDS011;36472;52.170;20.884;2022-11-15T00:12:13;44.70;;;24.85;;
21274;SDS011;36472;52.170;20.884;2022-11-15T00:15:00;42.38;;;25.00;;
21274;SDS011;36472;52.170;20.884;2022-11-15T00:17:48;44.08;;;24.50;;
21274;SDS011;36472;52.170;20.884;2022-11-15T00:20:36;43.95;;;24.52;;
21274;SDS011;36472;52.170;20.884;2022-11-15T00:23:25;41.08;;;24.90;;
21274;SDS011;36472;52.170;20.884;2022-11-15T00:26:13;47.75;;;25.08;;
21274;SDS011;36472;52.170;20.884;2022-11-15T00:29:02;48.25;;;26.67;;
21274;SDS011;36472;52.170;20.884;2022-11-15T00:31:49;45.70;;;25.42;;
21274;SDS011;36472;52.170;20.884;2022-11-15T00:34:36;47.92;;;27.67;;
21274;SDS011;36472;52.170;20.884;2022-11-15T00:37:23;45.33;;;25.33;;
21274;SDS011;36472;52.170;20.884;2022-11-15T00:40:12;48.13;;;26.48;;
21274;SDS011;36472;52.170;20.884;2022-11-15T00:42:59;41.50;;;23.70;;
21274;SDS011;36472;52.170;20.884;2022-11-15T00:45:46;44.17;;;26.10;;
21274;SDS011;36472;52.170;20.884;2022-11-15T00:48:34;43.47;;;25.45;;
21274;SDS011;36472;52.170;20.884;2022-11-15T00:51:21;45.42;;;26.48;;
21274;SDS011;36472;52.170;20.884;2022-11-15T00:54:08;43.17;;;23.73;;
21274;SDS011;36472;52.170;20.884;2022-11-15T00:56:57;45.30;;;26.10;;
21274;SDS011;36472;52.170;20.884;2022-11-15T00:59:44;48.63;;;25.48;;
21274;SDS011;36472;52.170;20.884;2022-11-15T01:02:31;41.55;;;24.45;;
21274;SDS011;36472;52.170;20.884;2022-11-15T01:05:19;45.63;;;24.75;;
21274;SDS011;36472;52.170;20.884;2022-11-15T01:08:10;41.67;;;23.83;;
21274;SDS011;36472;52.170;20.884;2022-11-15T01:11:02;43.53;;;24.73;;
21274;SDS011;36472;52.170;20.884;2022-11-15T01:13:52;43.75;;;24.08;;
21274;SDS011;36472;52.170;20.884;2022-11-15T01:16:41;38.28;;;23.58;;
21274;SDS011;36472;52.170;20.884;2022-11-15T01:19:28;46.45;;;25.88;;
21274;SDS011;36472;52.170;20.884;2022-11-15T01:22:15;42.50;;;25.08;;
21274;SDS011;36472;52.170;20.884;2022-11-15T01:25:03;43.10;;;25.00;;
21274;SDS011;36472;52.170;20.884;2022-11-15T01:27:50;42.60;;;26.00;;
21274;SDS011;36472;52.170;20.884;2022-11-15T01:30:39;41.33;;;24.05;;
21274;SDS011;36472;52.170;20.884;2022-11-15T01:33:26;47.30;;;25.70;;
21274;SDS011;36472;52.170;20.884;2022-11-15T01:36:19;42.47;;;24.92;;
21274;SDS011;36472;52.170;20.884;2022-11-15T01:39:08;43.45;;;25.67;;
21274;SDS011;36472;52.170;20.884;2022-11-15T01:41:56;45.88;;;25.13;;
21274;SDS011;36472;52.170;20.884;2022-11-15T01:44:44;45.90;;;25.88;;
21274;SDS011;36472;52.170;20.884;2022-11-15T01:47:36;46.20;;;26.23;;
21274;SDS011;36472;52.170;20.884;2022-11-15T01:50:29;45.22;;;26.98;;
21274;SDS011;36472;52.170;20.884;2022-11-15T01:53:19;48.13;;;26.58;;
21274;SDS011;36472;52.170;20.884;2022-11-15T01:56:11;47.38;;;26.77;;
21274;SDS011;36472;52.170;20.884;2022-11-15T01:59:05;47.22;;;26.08;;
21274;SDS011;36472;52.170;20.884;2022-11-15T02:01:54;47.67;;;26.30;;
21274;SDS011;36472;52.170;20.884;2022-11-15T02:04:44;55.03;;;28.55;;
21274;SDS011;36472;52.170;20.884;2022-11-15T02:07:34;48.28;;;26.58;;
21274;SDS011;36472;52.170;20.884;2022-11-15T02:10:23;49.22;;;27.65;;
21274;SDS011;36472;52.170;20.884;2022-11-15T02:13:11;48.03;;;27.55;;
21274;SDS011;36472;52.170;20.884;2022-11-15T02:16:00;47.63;;;27.73;;
21274;SDS011;36472;52.170;20.884;2022-11-15T02:18:57;51.42;;;26.48;;
21274;SDS011;36472;52.170;20.884;2022-11-15T02:21:59;48.55;;;27.05;;
21274;SDS011;36472;52.170;20.884;2022-11-15T02:25:01;49.75;;;28.15;;
21274;SDS011;36472;52.170;20.884;2022-11-15T02:31:32;48.67;;;28.48;;
21274;SDS011;36472;52.170;20.884;2022-11-15T02:34:33;50.70;;;27.70;;
21274;SDS011;36472;52.170;20.884;2022-11-15T02:37:36;54.03;;;28.42;;
21274;SDS011;36472;52.170;20.884;2022-11-15T02:40:34;47.97;;;27.10;;
21274;SDS011;36472;52.170;20.884;2022-11-15T02:43:34;48.53;;;27.58;;
21274;SDS011;36472;52.170;20.884;2022-11-15T02:46:47;46.35;;;25.60;;
21274;SDS011;36472;52.170;20.884;2022-11-15T02:49:58;46.67;;;26.42;;
21274;SDS011;36472;52.170;20.884;2022-11-15T02:52:53;50.75;;;27.08;;
21274;SDS011;36472;52.170;20.884;2022-11-15T02:55:43;46.95;;;26.38;;
21274;SDS011;36472;52.170;20.884;2022-11-15T02:58:47;51.42;;;28.70;;
21274;SDS011;36472;52.170;20.884;2022-11-15T03:01:59;51.17;;;26.95;;
21274;SDS011;36472;52.170;20.884;2022-11-15T03:05:09;48.15;;;25.90;;
21274;SDS011;36472;52.170;20.884;2022-11-15T03:08:08;48.35;;;26.05;;
21274;SDS011;36472;52.170;20.884;2022-11-15T03:11:07;45.20;;;25.50;;
21274;SDS011;36472;52.170;20.884;2022-11-15T03:14:00;52.42;;;27.65;;
21274;SDS011;36472;52.170;20.884;2022-11-15T03:16:56;48.22;;;26.10;;
21274;SDS011;36472;52.170;20.884;2022-11-15T03:19:53;50.25;;;25.92;;
21274;SDS011;36472;52.170;20.884;2022-11-15T03:22:44;49.45;;;25.65;;
21274;SDS011;36472;52.170;20.884;2022-11-15T03:25:36;46.60;;;25.88;;
21274;SDS011;36472;52.170;20.884;2022-11-15T03:28:31;45.08;;;25.55;;
21274;SDS011;36472;52.170;20.884;2022-11-15T03:31:25;46.95;;;25.23;;
21274;SDS011;36472;52.170;20.884;2022-11-15T03:39:27;46.88;;;26.58;;
21274;SDS011;36472;52.170;20.884;2022-11-15T03:42:17;49.72;;;25.48;;
21274;SDS011;36472;52.170;20.884;2022-11-15T03:45:14;52.25;;;26.65;;
21274;SDS011;36472;52.170;20.884;2022-11-15T03:48:10;46.45;;;26.02;;
21274;SDS011;36472;52.170;20.884;2022-11-15T03:51:02;49.80;;;25.27;;
21274;SDS011;36472;52.170;20.884;2022-11-15T03:53:50;47.22;;;25.70;;
21274;SDS011;36472;52.170;20.884;2022-11-15T03:56:39;48.08;;;26.25;;
21274;SDS011;36472;52.170;20.884;2022-11-15T03:59:26;48.88;;;26.17;;
21274;SDS011;36472;52.170;20.884;2022-11-15T04:02:14;46.75;;;24.17;;
21274;SDS011;36472;52.170;20.884;2022-11-15T04:05:02;47.85;;;24.10;;
21274;SDS011;36472;52.170;20.884;2022-11-15T04:07:49;48.53;;;25.05;;
21274;SDS011;36472;52.170;20.884;2022-11-15T04:10:37;48.95;;;23.85;;
21274;SDS011;36472;52.170;20.884;2022-11-15T04:13:25;46.50;;;23.40;;
21274;SDS011;36472;52.170;20.884;2022-11-15T04:16:13;45.65;;;22.65;;
21274;SDS011;36472;52.170;20.884;2022-11-15T04:19:00;44.13;;;23.50;;
21274;SDS011;36472;52.170;20.884;2022-11-15T04:26:33;45.85;;;22.98;;
21274;SDS011;36472;52.170;20.884;2022-11-15T04:29:22;45.17;;;23.58;;
21274;SDS011;36472;52.170;20.884;2022-11-15T04:32:21;47.53;;;24.50;;
21274;SDS011;36472;52.170;20.884;2022-11-15T04:35:08;46.28;;;22.75;;
21274;SDS011;36472;52.170;20.884;2022-11-15T04:37:56;47.78;;;22.65;;
21274;SDS011;36472;52.170;20.884;2022-11-15T04:40:44;50.42;;;25.23;;
21274;SDS011;36472;52.170;20.884;2022-11-15T04:43:32;47.35;;;23.48;;
21274;SDS011;36472;52.170;20.884;2022-11-15T04:46:21;39.50;;;21.00;;
21274;SDS011;36472;52.170;20.884;2022-11-15T04:49:10;43.70;;;23.50;;
21274;SDS011;36472;52.170;20.884;2022-11-15T04:51:57;46.75;;;22.55;;
21274;SDS011;36472;52.170;20.884;2022-11-15T04:59:34;49.17;;;24.20;;
21274;SDS011;36472;52.170;20.884;2022-11-15T05:02:23;49.13;;;24.60;;
21274;SDS011;36472;52.170;20.884;2022-11-15T05:05:30;49.13;;;23.80;;
21274;SDS011;36472;52.170;20.884;2022-11-15T05:08:17;47.58;;;23.90;;
21274;SDS011;36472;52.170;20.884;2022-11-15T05:11:04;42.67;;;22.10;;
21274;SDS011;36472;52.170;20.884;2022-11-15T05:13:52;52.03;;;23.17;;
21274;SDS011;36472;52.170;20.884;2022-11-15T05:16:40;45.85;;;23.33;;
21274;SDS011;36472;52.170;20.884;2022-11-15T05:19:29;50.20;;;23.55;;
21274;SDS011;36472;52.170;20.884;2022-11-15T05:22:16;43.00;;;22.52;;
21274;SDS011;36472;52.170;20.884;2022-11-15T05:25:05;41.92;;;22.33;;
21274;SDS011;36472;52.170;20.884;2022-11-15T05:27:53;49.67;;;23.65;;
21274;SDS011;36472;52.170;20.884;2022-11-15T05:30:41;49.33;;;24.15;;
21274;SDS011;36472;52.170;20.884;2022-11-15T05:33:29;46.80;;;23.38;;
21274;SDS011;36472;52.170;20.884;2022-11-15T05:36:20;48.70;;;24.05;;
21274;SDS011;36472;52.170;20.884;2022-11-15T05:39:16;39.88;;;20.70;;
21274;SDS011;36472;52.170;20.884;2022-11-15T05:42:04;40.60;;;20.73;;
21274;SDS011;36472;52.170;20.884;2022-11-15T05:49:23;42.95;;;21.33;;
21274;SDS011;36472;52.170;20.884;2022-11-15T05:52:21;42.20;;;21.02;;
21274;SDS011;36472;52.170;20.884;2022-11-15T05:55:11;47.75;;;22.02;;
21274;SDS011;36472;52.170;20.884;2022-11-15T05:58:00;46.92;;;22.80;;
21274;SDS011;36472;52.170;20.884;2022-11-15T06:00:47;44.67;;;21.05;;
21274;SDS011;36472;52.170;20.884;2022-11-15T06:03:35;44.15;;;21.85;;
21274;SDS011;36472;52.170;20.884;2022-11-15T06:06:22;46.50;;;22.02;;
21274;SDS011;36472;52.170;20.884;2022-11-15T06:09:10;41.08;;;21.40;;
21274;SDS011;36472;52.170;20.884;2022-11-15T06:16:48;42.45;;;23.83;;
21274;SDS011;36472;52.170;20.884;2022-11-15T06:19:35;43.63;;;23.08;;
21274;SDS011;36472;52.170;20.884;2022-11-15T06:22:23;40.72;;;21.25;;
21274;SDS011;36472;52.170;20.884;2022-11-15T06:25:11;39.15;;;20.20;;
21274;SDS011;36472;52.170;20.884;2022-11-15T06:27:59;38.60;;;18.98;;
21274;SDS011;36472;52.170;20.884;2022-11-15T06:30:46;35.25;;;18.27;;
21274;SDS011;36472;52.170;20.884;2022-11-15T06:33:38;38.78;;;18.92;;
21274;SDS011;36472;52.170;20.884;2022-11-15T06:36:25;38.42;;;18.42;;
21274;SDS011;36472;52.170;20.884;2022-11-15T06:39:12;40.75;;;19.90;;
21274;SDS011;36472;52.170;20.884;2022-11-15T06:42:00;35.33;;;18.35;;
21274;SDS011;36472;52.170;20.884;2022-11-15T06:44:48;36.65;;;18.90;;
21274;SDS011;36472;52.170;20.884;2022-11-15T06:47:35;41.60;;;20.98;;
21274;SDS011;36472;52.170;20.884;2022-11-15T06:50:31;37.40;;;19.40;;
21274;SDS011;36472;52.170;20.884;2022-11-15T06:53:18;38.50;;;19.52;;
21274;SDS011;36472;52.170;20.884;2022-11-15T06:56:06;33.42;;;17.98;;
21274;SDS011;36472;52.170;20.884;2022-11-15T06:58:56;35.13;;;17.83;;
21274;SDS011;36472;52.170;20.884;2022-11-15T07:01:43;34.63;;;18.45;;
21274;SDS011;36472;52.170;20.884;2022-11-15T07:04:31;32.30;;;18.35;;
21274;SDS011;36472;52.170;20.884;2022-11-15T07:07:18;40.28;;;20.70;;
21274;SDS011;36472;52.170;20.884;2022-11-15T07:10:06;40.08;;;18.48;;
21274;SDS011;36472;52.170;20.884;2022-11-15T07:12:55;38.25;;;19.38;;
21274;SDS011;36472;52.170;20.884;2022-11-15T07:15:44;38.53;;;19.38;;
21274;SDS011;36472;52.170;20.884;2022-11-15T07:18:33;38.55;;;19.95;;
21274;SDS011;36472;52.170;20.884;2022-11-15T07:21:21;39.00;;;20.05;;
21274;SDS011;36472;52.170;20.884;2022-11-15T07:24:12;35.85;;;18.98;;
21274;SDS011;36472;52.170;20.884;2022-11-15T07:26:59;38.05;;;21.77;;
21274;SDS011;36472;52.170;20.884;2022-11-15T07:29:46;43.78;;;22.83;;
21274;SDS011;36472;52.170;20.884;2022-11-15T07:32:35;36.13;;;19.25;;
21274;SDS011;36472;52.170;20.884;2022-11-15T07:35:23;33.42;;;18.90;;
21274;SDS011;36472;52.170;20.884;2022-11-15T07:38:12;34.63;;;17.17;;
21274;SDS011;36472;52.170;20.884;2022-11-15T07:45:49;29.52;;;16.58;;
21274;SDS011;36472;52.170;20.884;2022-11-15T07:48:44;34.53;;;17.38;;
21274;SDS011;36472;52.170;20.884;2022-11-15T07:51:32;33.67;;;17.48;;
21274;SDS011;36472;52.170;20.884;2022-11-15T07:59:11;31.83;;;17.50;;
21274;SDS011;36472;52.170;20.884;2022-11-15T08:01:58;31.58;;;17.50;;
21274;SDS011;36472;52.170;20.884;2022-11-15T08:04:46;31.00;;;17.48;;
21274;SDS011;36472;52.170;20.884;2022-11-15T08:07:34;28.13;;;16.80;;
21274;SDS011;36472;52.170;20.884;2022-11-15T08:10:23;28.23;;;17.10;;
21274;SDS011;36472;52.170;20.884;2022-11-15T08:13:11;36.03;;;19.15;;
21274;SDS011;36472;52.170;20.884;2022-11-15T08:16:00;32.10;;;18.52;;
21274;SDS011;36472;52.170;20.884;2022-11-15T08:18:50;34.58;;;17.52;;
21274;SDS011;36472;52.170;20.884;2022-11-15T08:21:39;33.67;;;18.90;;
21274;SDS011;36472;52.170;20.884;2022-11-15T08:24:27;36.13;;;20.55;;
21274;SDS011;36472;52.170;20.884;2022-11-15T08:27:14;29.83;;;16.42;;
21274;SDS011;36472;52.170;20.884;2022-11-15T08:30:01;27.42;;;16.55;;
21274;SDS011;36472;52.170;20.884;2022-11-15T08:32:50;29.02;;;17.40;;
21274;SDS011;36472;52.170;20.884;2022-11-15T08:35:39;31.17;;;17.33;;
21274;SDS011;36472;52.170;20.884;2022-11-15T08:38:29;27.65;;;16.35;;
21274;SDS011;36472;52.170;20.884;2022-11-15T08:41:19;28.92;;;16.73;;
21274;SDS011;36472;52.170;20.884;2022-11-15T08:44:13;30.05;;;17.50;;
21274;SDS011;36472;52.170;20.884;2022-11-15T08:47:00;32.17;;;17.98;;
21274;SDS011;36472;52.170;20.884;2022-11-15T08:49:48;31.77;;;17.20;;
21274;SDS011;36472;52.170;20.884;2022-11-15T08:52:35;35.17;;;20.50;;
21274;SDS011;36472;52.170;20.884;2022-11-15T08:55:24;34.03;;;18.92;;
21274;SDS011;36472;52.170;20.884;2022-11-15T08:58:11;33.55;;;18.02;;
21274;SDS011;36472;52.170;20.884;2022-11-15T09:00:58;32.13;;;17.88;;
21274;SDS011;36472;52.170;20.884;2022-11-15T09:08:37;31.90;;;18.55;;
21274;SDS011;36472;52.170;20.884;2022-11-15T09:11:37;32.67;;;18.98;;
21274;SDS011;36472;52.170;20.884;2022-11-15T09:14:25;32.75;;;18.27;;
21274;SDS011;36472;52.170;20.884;2022-11-15T09:17:12;32.55;;;18.33;;
21274;SDS011;36472;52.170;20.884;2022-11-15T09:20:06;33.75;;;19.63;;
21274;SDS011;36472;52.170;20.884;2022-11-15T09:22:58;32.08;;;19.50;;
21274;SDS011;36472;52.170;20.884;2022-11-15T09:25:47;31.65;;;18.33;;
21274;SDS011;36472;52.170;20.884;2022-11-15T09:28:35;32.35;;;18.65;;
21274;SDS011;36472;52.170;20.884;2022-11-15T09:31:27;34.20;;;19.20;;
21274;SDS011;36472;52.170;20.884;2022-11-15T09:34:15;33.17;;;19.13;;
21274;SDS011;36472;52.170;20.884;2022-11-15T09:37:03;34.65;;;18.20;;
21274;SDS011;36472;52.170;20.884;2022-11-15T09:39:50;30.75;;;17.65;;
21274;SDS011;36472;52.170;20.884;2022-11-15T09:42:43;28.80;;;17.67;;
21274;SDS011;36472;52.170;20.884;2022-11-15T09:45:51;33.10;;;18.05;;
21274;SDS011;36472;52.170;20.884;2022-11-15T09:48:53;32.22;;;18.15;;
21274;SDS011;36472;52.170;20.884;2022-11-15T09:51:38;31.08;;;17.73;;
21274;SDS011;36472;52.170;20.884;2022-11-15T09:54:16;31.05;;;17.88;;
21274;SDS011;36472;52.170;20.884;2022-11-15T09:57:17;33.25;;;17.98;;
21274;SDS011;36472;52.170;20.884;2022-11-15T09:59:56;32.05;;;17.73;;
21274;SDS011;36472;52.170;20.884;2022-11-15T10:03:02;34.95;;;20.17;;
21274;SDS011;36472;52.170;20.884;2022-11-15T10:05:40;33.78;;;19.15;;
21274;SDS011;36472;52.170;20.884;2022-11-15T10:08:25;33.35;;;19.63;;
21274;SDS011;36472;52.170;20.884;2022-11-15T10:11:09;34.45;;;18.52;;
21274;SDS011;36472;52.170;20.884;2022-11-15T10:14:02;32.65;;;19.70;;
21274;SDS011;36472;52.170;20.884;2022-11-15T10:16:55;33.17;;;18.98;;
21274;SDS011;36472;52.170;20.884;2022-11-15T10:20:04;34.25;;;19.20;;
21274;SDS011;36472;52.170;20.884;2022-11-15T10:22:45;36.67;;;19.95;;
21274;SDS011;36472;52.170;20.884;2022-11-15T10:25:20;39.58;;;21.27;;
21274;SDS011;36472;52.170;20.884;2022-11-15T10:27:55;38.70;;;22.58;;
21274;SDS011;36472;52.170;20.884;2022-11-15T10:30:32;40.53;;;21.67;;
21274;SDS011;36472;52.170;20.884;2022-11-15T10:33:11;40.50;;;21.50;;
21274;SDS011;36472;52.170;20.884;2022-11-15T10:35:57;37.83;;;21.55;;
21274;SDS011;36472;52.170;20.884;2022-11-15T10:38:51;42.20;;;24.23;;
21274;SDS011;36472;52.170;20.884;2022-11-15T10:41:32;37.03;;;21.83;;
21274;SDS011;36472;52.170;20.884;2022-11-15T10:44:19;40.25;;;21.33;;
21274;SDS011;36472;52.170;20.884;2022-11-15T10:47:20;35.55;;;19.58;;
21274;SDS011;36472;52.170;20.884;2022-11-15T10:50:06;36.42;;;21.60;;
21274;SDS011;36472;52.170;20.884;2022-11-15T10:52:56;36.72;;;20.63;;
21274;SDS011;36472;52.170;20.884;2022-11-15T10:55:29;35.20;;;21.83;;
21274;SDS011;36472;52.170;20.884;2022-11-15T10:58:02;37.20;;;22.73;;
21274;SDS011;36472;52.170;20.884;2022-11-15T11:00:35;41.83;;;24.48;;
21274;SDS011;36472;52.170;20.884;2022-11-15T11:03:08;40.35;;;22.17;;
21274;SDS011;36472;52.170;20.884;2022-11-15T11:06:03;40.58;;;22.33;;
21274;SDS011;36472;52.170;20.884;2022-11-15T11:13:14;41.60;;;22.15;;
21274;SDS011;36472;52.170;20.884;2022-11-15T11:15:53;38.15;;;21.77;;
21274;SDS011;36472;52.170;20.884;2022-11-15T11:18:38;35.42;;;20.10;;
21274;SDS011;36472;52.170;20.884;2022-11-15T11:21:22;39.20;;;23.35;;
21274;SDS011;36472;52.170;20.884;2022-11-15T11:24:08;34.03;;;20.77;;
21274;SDS011;36472;52.170;20.884;2022-11-15T11:26:57;39.53;;;24.45;;
21274;SDS011;36472;52.170;20.884;2022-11-15T11:29:51;40.95;;;26.30;;
21274;SDS011;36472;52.170;20.884;2022-11-15T11:32:38;40.90;;;25.35;;
21274;SDS011;36472;52.170;20.884;2022-11-15T11:35:24;39.55;;;25.05;;
21274;SDS011;36472;52.170;20.884;2022-11-15T11:38:02;36.50;;;22.38;;
21274;SDS011;36472;52.170;20.884;2022-11-15T11:40:52;40.83;;;26.25;;
21274;SDS011;36472;52.170;20.884;2022-11-15T11:43:45;40.25;;;25.38;;
21274;SDS011;36472;52.170;20.884;2022-11-15T11:46:32;41.67;;;26.25;;
21274;SDS011;36472;52.170;20.884;2022-11-15T11:49:16;43.00;;;26.77;;
21274;SDS011;36472;52.170;20.884;2022-11-15T11:51:54;44.25;;;27.50;;
21274;SDS011;36472;52.170;20.884;2022-11-15T11:54:31;40.85;;;23.85;;
21274;SDS011;36472;52.170;20.884;2022-11-15T11:57:11;38.70;;;24.90;;
21274;SDS011;36472;52.170;20.884;2022-11-15T11:59:52;41.90;;;24.30;;
21274;SDS011;36472;52.170;20.884;2022-11-15T12:02:40;41.70;;;24.30;;
21274;SDS011;36472;52.170;20.884;2022-11-15T12:05:13;39.72;;;23.40;;
21274;SDS011;36472;52.170;20.884;2022-11-15T12:07:56;40.47;;;23.30;;
21274;SDS011;36472;52.170;20.884;2022-11-15T12:10:44;39.75;;;23.63;;
21274;SDS011;36472;52.170;20.884;2022-11-15T12:13:19;39.70;;;23.75;;
21274;SDS011;36472;52.170;20.884;2022-11-15T12:15:56;37.88;;;22.05;;
21274;SDS011;36472;52.170;20.884;2022-11-15T12:18:46;39.75;;;23.70;;
21274;SDS011;36472;52.170;20.884;2022-11-15T12:21:20;37.90;;;23.45;;
21274;SDS011;36472;52.170;20.884;2022-11-15T12:24:04;40.63;;;25.10;;
21274;SDS011;36472;52.170;20.884;2022-11-15T12:26:44;37.50;;;22.27;;
21274;SDS011;36472;52.170;20.884;2022-11-15T12:29:22;44.03;;;25.45;;
21274;SDS011;36472;52.170;20.884;2022-11-15T12:31:58;45.83;;;27.15;;
21274;SDS011;36472;52.170;20.884;2022-11-15T12:43:37;45.55;;;28.38;;
21274;SDS011;36472;52.170;20.884;2022-11-15T12:46:11;47.80;;;28.48;;
21274;SDS011;36472;52.170;20.884;2022-11-15T12:52:15;46.30;;;25.58;;
21274;SDS011;36472;52.170;20.884;2022-11-15T12:54:54;47.50;;;26.35;;
21274;SDS011;36472;52.170;20.884;2022-11-15T12:57:36;47.42;;;27.40;;
21274;SDS011;36472;52.170;20.884;2022-11-15T13:07:56;49.30;;;29.08;;
21274;SDS011;36472;52.170;20.884;2022-11-15T13:10:30;43.22;;;25.40;;
21274;SDS011;36472;52.170;20.884;2022-11-15T13:13:02;45.83;;;26.67;;
21274;SDS011;36472;52.170;20.884;2022-11-15T13:18:29;43.88;;;26.98;;
21274;SDS011;36472;52.170;20.884;2022-11-15T13:21:20;46.10;;;25.70;;
21274;SDS011;36472;52.170;20.884;2022-11-15T13:24:14;48.42;;;28.30;;
21274;SDS011;36472;52.170;20.884;2022-11-15T13:26:44;45.20;;;27.15;;
21274;SDS011;36472;52.170;20.884;2022-11-15T13:29:14;45.58;;;26.42;;
21274;SDS011;36472;52.170;20.884;2022-11-15T13:31:46;48.58;;;26.60;;
21274;SDS011;36472;52.170;20.884;2022-11-15T13:34:20;43.60;;;26.60;;
21274;SDS011;36472;52.170;20.884;2022-11-15T13:37:27;45.45;;;26.80;;
21274;SDS011;36472;52.170;20.884;2022-11-15T13:40:15;52.30;;;29.48;;
21274;SDS011;36472;52.170;20.884;2022-11-15T13:42:51;49.38;;;29.08;;
21274;SDS011;36472;52.170;20.884;2022-11-15T13:45:20;45.35;;;27.00;;
21274;SDS011;36472;52.170;20.884;2022-11-15T13:47:53;46.90;;;26.67;;
21274;SDS011;36472;52.170;20.884;2022-11-15T13:50:26;45.50;;;28.50;;
21274;SDS011;36472;52.170;20.884;2022-11-15T13:53:02;48.78;;;26.25;;
21274;SDS011;36472;52.170;20.884;2022-11-15T13:55:34;49.63;;;29.35;;
21274;SDS011;36472;52.170;20.884;2022-11-15T13:58:03;52.45;;;30.85;;
21274;SDS011;36472;52.170;20.884;2022-11-15T14:00:35;48.05;;;28.42;;
21274;SDS011;36472;52.170;20.884;2022-11-15T14:03:08;49.95;;;29.75;;
21274;SDS011;36472;52.170;20.884;2022-11-15T14:06:01;49.42;;;29.40;;
21274;SDS011;36472;52.170;20.884;2022-11-15T14:08:34;57.20;;;31.80;;
21274;SDS011;36472;52.170;20.884;2022-11-15T14:11:09;53.30;;;31.85;;
21274;SDS011;36472;52.170;20.884;2022-11-15T14:13:58;53.50;;;30.15;;
21274;SDS011;36472;52.170;20.884;2022-11-15T14:16:41;49.97;;;29.17;;
21274;SDS011;36472;52.170;20.884;2022-11-15T14:19:12;49.65;;;29.40;;
21274;SDS011;36472;52.170;20.884;2022-11-15T14:26:37;49.28;;;27.75;;
21274;SDS011;36472;52.170;20.884;2022-11-15T14:29:22;49.30;;;28.35;;
21274;SDS011;36472;52.170;20.884;2022-11-15T14:31:52;53.45;;;28.77;;
21274;SDS011;36472;52.170;20.884;2022-11-15T14:34:22;47.42;;;28.77;;
21274;SDS011;36472;52.170;20.884;2022-11-15T14:36:51;51.42;;;29.83;;
21274;SDS011;36472;52.170;20.884;2022-11-15T14:39:20;48.53;;;28.50;;
21274;SDS011;36472;52.170;20.884;2022-11-15T14:41:52;50.10;;;29.33;;
21274;SDS011;36472;52.170;20.884;2022-11-15T14:48:54;49.17;;;28.60;;
21274;SDS011;36472;52.170;20.884;2022-11-15T14:51:23;48.38;;;28.33;;
21274;SDS011;36472;52.170;20.884;2022-11-15T14:53:53;50.85;;;29.15;;
21274;SDS011;36472;52.170;20.884;2022-11-15T14:56:22;49.90;;;27.90;;
21274;SDS011;36472;52.170;20.884;2022-11-15T14:58:52;48.22;;;27.33;;
21274;SDS011;36472;52.170;20.884;2022-11-15T15:01:23;50.85;;;28.38;;
21274;SDS011;36472;52.170;20.884;2022-11-15T15:08:25;54.20;;;28.67;;
21274;SDS011;36472;52.170;20.884;2022-11-15T15:10:54;51.60;;;28.08;;
21274;SDS011;36472;52.170;20.884;2022-11-15T15:13:23;51.28;;;28.30;;
21274;SDS011;36472;52.170;20.884;2022-11-15T15:15:53;56.50;;;30.00;;
21274;SDS011;36472;52.170;20.884;2022-11-15T15:18:22;54.83;;;29.02;;
21274;SDS011;36472;52.170;20.884;2022-11-15T15:20:54;51.97;;;28.83;;
21274;SDS011;36472;52.170;20.884;2022-11-15T15:23:27;53.60;;;30.15;;
21274;SDS011;36472;52.170;20.884;2022-11-15T15:25:57;52.08;;;28.77;;
21274;SDS011;36472;52.170;20.884;2022-11-15T15:32:59;48.50;;;27.58;;
21274;SDS011;36472;52.170;20.884;2022-11-15T15:35:29;50.13;;;28.02;;
21274;SDS011;36472;52.170;20.884;2022-11-15T15:38:01;55.65;;;29.80;;
21274;SDS011;36472;52.170;20.884;2022-11-15T15:45:05;46.45;;;27.00;;
21274;SDS011;36472;52.170;20.884;2022-11-15T15:47:35;53.70;;;29.02;;
21274;SDS011;36472;52.170;20.884;2022-11-15T15:50:11;57.75;;;32.08;;
21274;SDS011;36472;52.170;20.884;2022-11-15T15:52:50;61.28;;;33.42;;
21274;SDS011;36472;52.170;20.884;2022-11-15T15:55:20;56.42;;;31.80;;
21274;SDS011;36472;52.170;20.884;2022-11-15T15:57:49;57.45;;;30.45;;
21274;SDS011;36472;52.170;20.884;2022-11-15T16:00:19;49.95;;;28.15;;
21274;SDS011;36472;52.170;20.884;2022-11-15T16:02:51;57.03;;;31.58;;
21274;SDS011;36472;52.170;20.884;2022-11-15T16:09:55;52.85;;;29.10;;
21274;SDS011;36472;52.170;20.884;2022-11-15T16:12:30;54.92;;;29.08;;
21274;SDS011;36472;52.170;20.884;2022-11-15T16:15:01;58.80;;;30.10;;
21274;SDS011;36472;52.170;20.884;2022-11-15T16:17:31;54.03;;;29.42;;
21274;SDS011;36472;52.170;20.884;2022-11-15T16:20:05;52.65;;;28.27;;
21274;SDS011;36472;52.170;20.884;2022-11-15T16:22:43;55.72;;;27.60;;
21274;SDS011;36472;52.170;20.884;2022-11-15T16:25:13;52.67;;;27.65;;
21274;SDS011;36472;52.170;20.884;2022-11-15T16:27:42;50.35;;;26.15;;
21274;SDS011;36472;52.170;20.884;2022-11-15T16:30:12;60.83;;;29.88;;
21274;SDS011;36472;52.170;20.884;2022-11-15T16:32:45;73.80;;;40.10;;
21274;SDS011;36472;52.170;20.884;2022-11-15T16:35:15;88.80;;;49.50;;
21274;SDS011;36472;52.170;20.884;2022-11-15T16:37:44;75.03;;;42.67;;
21274;SDS011;36472;52.170;20.884;2022-11-15T16:40:25;66.75;;;36.22;;
21274;SDS011;36472;52.170;20.884;2022-11-15T16:42:56;59.30;;;32.00;;
21274;SDS011;36472;52.170;20.884;2022-11-15T16:50:00;50.83;;;26.70;;
21274;SDS011;36472;52.170;20.884;2022-11-15T16:52:29;50.90;;;26.25;;
21274;SDS011;36472;52.170;20.884;2022-11-15T16:54:58;51.65;;;27.23;;
21274;SDS011;36472;52.170;20.884;2022-11-15T16:57:28;54.92;;;30.50;;
21274;SDS011;36472;52.170;20.884;2022-11-15T16:59:57;58.42;;;30.73;;
21274;SDS011;36472;52.170;20.884;2022-11-15T17:02:26;53.50;;;30.73;;
21274;SDS011;36472;52.170;20.884;2022-11-15T17:04:54;55.97;;;27.83;;
21274;SDS011;36472;52.170;20.884;2022-11-15T17:07:23;59.53;;;29.20;;
21274;SDS011;36472;52.170;20.884;2022-11-15T17:09:52;55.10;;;27.42;;
21274;SDS011;36472;52.170;20.884;2022-11-15T17:16:54;57.58;;;27.98;;
21274;SDS011;36472;52.170;20.884;2022-11-15T17:19:22;54.63;;;30.23;;
21274;SDS011;36472;52.170;20.884;2022-11-15T17:21:51;61.10;;;30.17;;
21274;SDS011;36472;52.170;20.884;2022-11-15T17:24:20;61.83;;;31.27;;
21274;SDS011;36472;52.170;20.884;2022-11-15T17:31:21;56.92;;;29.95;;
21274;SDS011;36472;52.170;20.884;2022-11-15T17:33:52;60.22;;;30.50;;
21274;SDS011;36472;52.170;20.884;2022-11-15T17:36:21;57.45;;;29.35;;
21274;SDS011;36472;52.170;20.884;2022-11-15T17:38:50;53.00;;;28.98;;